Date,TemperatureHighF,TemperatureAvgF,TemperatureLowF,DewpointHighF,DewpointAvgF,DewpointLowF,HumidityHigh,HumidityAvg,HumidityLow,PressureMaxIn,PressureMinIn,WindSpeedMaxMPH,WindSpeedAvgMPH,GustSpeedMaxMPH,PrecipitationSumIn
2013-3-1,34.7,31.6,28.9,28.7,26.4,22.0,89,81,66,30.22,30.09,7,3,11,0.06
2013-3-2,36.0,29.7,26.2,22.0,16.2,12.2,75,58,39,30.27,30.21,10,4,14,0.01
2013-3-3,41.9,31.8,21.4,22.7,16.2,11.8,71,53,32,30.24,30.05,6,1,8,0.00
2013-3-4,57.6,44.4,35.6,39.3,30.1,22.7,69,57,40,30.06,29.78,6,2,10,0.00
2013-3-5,45.3,36.2,32.2,33.7,27.3,16.9,92,71,48,30.15,29.81,23,5,36,0.20
2013-3-6,39.9,33.8,29.8,24.5,20.3,18.2,72,58,47,30.38,30.14,14,4,24,0.04
2013-3-7,53.6,36.8,26.6,29.1,24.0,18.2,76,61,36,30.44,30.33,5,1,8,0.00
2013-3-8,59.9,43.5,31.5,33.8,28.7,24.5,77,58,32,30.45,30.22,4,1,6,0.00
2013-3-9,71.8,53.7,41.7,41.6,35.8,29.3,85,53,28,30.22,29.83,4,1,9,0.05
2013-3-10,58.8,54.0,46.9,53.7,49.2,40.7,99,85,51,29.84,29.67,16,2,25,0.61
2013-3-11,46.9,36.9,33.6,44.7,30.1,21.0,93,77,54,30.02,29.74,19,7,30,0.00
2013-3-12,50.9,38.4,30.7,25.5,22.0,15.6,73,53,25,30.23,30.00,18,5,27,0.00
2013-3-13,43.5,34.9,28.8,24.4,15.6,10.2,78,46,26,30.44,30.23,11,4,23,0.00
2013-3-14,54.7,40.1,31.1,33.1,25.0,15.7,70,55,37,30.42,30.11,8,1,11,0.00
2013-3-15,74.7,54.0,35.6,48.9,39.1,28.5,84,60,32,30.12,29.69,6,0,9,0.00
2013-3-16,66.0,49.3,39.9,48.5,40.4,35.8,92,73,44,30.08,29.67,12,3,19,0.02
2013-3-17,40.1,37.0,35.2,37.3,32.9,27.8,99,85,74,30.12,29.80,6,1,12,0.21
2013-3-18,52.2,42.4,37.2,39.3,34.1,19.1,99,76,39,30.04,29.71,19,4,27,0.01
2013-3-19,48.6,39.8,32.5,20.2,11.2,3.8,55,33,18,30.24,30.04,14,3,19,0.00
2013-3-20,39.6,32.8,28.2,29.0,13.6,0.0,76,47,23,30.30,30.13,13,5,19,0.00
2013-3-21,41.7,30.7,23.0,16.4,9.0,2.6,50,40,24,30.15,30.01,5,1,8,0.00
2013-3-22,45.3,38.1,32.9,25.0,21.3,16.2,56,51,39,30.08,30.00,4,0,6,0.00
2013-3-23,39.6,39.3,39.0,24.2,23.2,22.8,55,52,51,30.05,30.03,1,0,3,0.00
2013-3-31,69.8,63.7,54.1,42.3,35.2,26.9,52,36,21,29.97,29.86,11,4,22,0.00